sensor_id;sensor_type;location;lat;lon;timestamp;temperature;humidity
13896;DHT22;7018;50.838;4.226;2022-11-14T00:01:13;6.50;99.90
13896;DHT22;7018;50.838;4.226;2022-11-14T00:03:40;6.40;99.90
13896;DHT22;7018;50.838;4.226;2022-11-14T00:06:07;6.40;99.90
13896;DHT22;7018;50.838;4.226;2022-11-14T00:08:34;6.30;99.90
13896;DHT22;7018;50.838;4.226;2022-11-14T00:11:02;6.30;99.90
13896;DHT22;7018;50.838;4.226;2022-11-14T00:13:29;6.30;99.90
13896;DHT22;7018;50.838;4.226;2022-11-14T00:15:56;6.30;99.90
13896;DHT22;7018;50.838;4.226;2022-11-14T00:18:23;6.20;99.90
13896;DHT22;7018;50.838;4.226;2022-11-14T00:20:51;6.20;99.90
13896;DHT22;7018;50.838;4.226;2022-11-14T00:23:20;6.30;99.90
13896;DHT22;7018;50.838;4.226;2022-11-14T00:25:48;6.20;99.90
13896;DHT22;7018;50.838;4.226;2022-11-14T00:28:15;6.30;99.90
13896;DHT22;7018;50.838;4.226;2022-11-14T00:30:46;6.20;99.90
13896;DHT22;7018;50.838;4.226;2022-11-14T00:33:14;6.20;99.90
13896;DHT22;7018;50.838;4.226;2022-11-14T00:35:52;6.20;99.90
13896;DHT22;7018;50.838;4.226;2022-11-14T00:38:19;6.10;99.90
13896;DHT22;7018;50.838;4.226;2022-11-14T00:40:47;6.20;99.90
13896;DHT22;7018;50.838;4.226;2022-11-14T00:43:14;6.20;99.90
13896;DHT22;7018;50.838;4.226;2022-11-14T00:45:43;6.20;99.90
13896;DHT22;7018;50.838;4.226;2022-11-14T00:48:10;6.20;99.90
13896;DHT22;7018;50.838;4.226;2022-11-14T00:50:37;6.20;99.90
13896;DHT22;7018;50.838;4.226;2022-11-14T00:53:04;6.10;99.90
13896;DHT22;7018;50.838;4.226;2022-11-14T00:55:31;6.20;99.90
13896;DHT22;7018;50.838;4.226;2022-11-14T00:57:58;6.30;99.90
13896;DHT22;7018;50.838;4.226;2022-11-14T01:00:25;6.30;99.90
13896;DHT22;7018;50.838;4.226;2022-11-14T01:02:52;6.30;99.90
13896;DHT22;7018;50.838;4.226;2022-11-14T01:05:23;6.20;99.90
13896;DHT22;7018;50.838;4.226;2022-11-14T01:07:50;6.20;99.90
13896;DHT22;7018;50.838;4.226;2022-11-14T01:10:18;6.10;99.90
13896;DHT22;7018;50.838;4.226;2022-11-14T01:12:45;6.10;99.90
13896;DHT22;7018;50.838;4.226;2022-11-14T01:15:12;6.20;99.90
13896;DHT22;7018;50.838;4.226;2022-11-14T01:17:40;6.20;99.90
13896;DHT22;7018;50.838;4.226;2022-11-14T01:20:07;6.20;99.90
13896;DHT22;7018;50.838;4.226;2022-11-14T01:22:34;6.20;99.90
13896;DHT22;7018;50.838;4.226;2022-11-14T01:25:01;6.20;99.90
13896;DHT22;7018;50.838;4.226;2022-11-14T01:27:31;6.20;99.90
13896;DHT22;7018;50.838;4.226;2022-11-14T01:29:58;6.20;99.90
13896;DHT22;7018;50.838;4.226;2022-11-14T01:32:26;6.20;99.90
13896;DHT22;7018;50.838;4.226;2022-11-14T01:34:53;6.10;99.90
13896;DHT22;7018;50.838;4.226;2022-11-14T01:37:20;6.00;99.90
13896;DHT22;7018;50.838;4.226;2022-11-14T01:39:47;5.90;99.90
13896;DHT22;7018;50.838;4.226;2022-11-14T01:42:14;5.90;99.90
13896;DHT22;7018;50.838;4.226;2022-11-14T01:44:48;6.00;99.90
13896;DHT22;7018;50.838;4.226;2022-11-14T01:47:20;5.90;99.90
13896;DHT22;7018;50.838;4.226;2022-11-14T01:49:54;5.90;99.90
13896;DHT22;7018;50.838;4.226;2022-11-14T01:52:37;5.90;99.90
13896;DHT22;7018;50.838;4.226;2022-11-14T01:55:07;5.80;99.90
13896;DHT22;7018;50.838;4.226;2022-11-14T01:57:40;5.70;99.90
13896;DHT22;7018;50.838;4.226;2022-11-14T02:00:10;5.70;99.90
13896;DHT22;7018;50.838;4.226;2022-11-14T02:02:38;5.70;99.90
13896;DHT22;7018;50.838;4.226;2022-11-14T02:05:08;5.70;99.90
13896;DHT22;7018;50.838;4.226;2022-11-14T02:07:37;5.60;99.90
13896;DHT22;7018;50.838;4.226;2022-11-14T02:10:14;5.60;99.90
13896;DHT22;7018;50.838;4.226;2022-11-14T02:12:41;5.70;99.90
13896;DHT22;7018;50.838;4.226;2022-11-14T02:15:09;5.70;99.90
13896;DHT22;7018;50.838;4.226;2022-11-14T02:17:36;5.70;99.90
13896;DHT22;7018;50.838;4.226;2022-11-14T02:22:39;5.60;99.90
13896;DHT22;7018;50.838;4.226;2022-11-14T02:25:08;5.50;99.90
13896;DHT22;7018;50.838;4.226;2022-11-14T02:27:37;5.40;99.90
13896;DHT22;7018;50.838;4.226;2022-11-14T02:30:07;5.40;99.90
13896;DHT22;7018;50.838;4.226;2022-11-14T02:32:35;5.40;99.90
13896;DHT22;7018;50.838;4.226;2022-11-14T02:35:21;5.60;99.90
13896;DHT22;7018;50.838;4.226;2022-11-14T02:37:49;5.50;99.90
13896;DHT22;7018;50.838;4.226;2022-11-14T02:40:16;5.60;99.90
13896;DHT22;7018;50.838;4.226;2022-11-14T02:42:43;5.60;99.90
13896;DHT22;7018;50.838;4.226;2022-11-14T02:45:11;5.60;99.90
13896;DHT22;7018;50.838;4.226;2022-11-14T02:47:39;5.70;99.90
13896;DHT22;7018;50.838;4.226;2022-11-14T02:50:06;5.70;99.90
13896;DHT22;7018;50.838;4.226;2022-11-14T02:52:33;5.70;99.90
13896;DHT22;7018;50.838;4.226;2022-11-14T02:55:00;5.70;99.90
13896;DHT22;7018;50.838;4.226;2022-11-14T02:57:27;5.70;99.90
13896;DHT22;7018;50.838;4.226;2022-11-14T02:59:54;5.70;99.90
13896;DHT22;7018;50.838;4.226;2022-11-14T03:02:21;5.70;99.90
13896;DHT22;7018;50.838;4.226;2022-11-14T03:04:48;5.80;99.90
13896;DHT22;7018;50.838;4.226;2022-11-14T03:07:15;5.70;99.90
13896;DHT22;7018;50.838;4.226;2022-11-14T03:09:42;5.70;99.90
13896;DHT22;7018;50.838;4.226;2022-11-14T03:12:09;5.50;99.90
13896;DHT22;7018;50.838;4.226;2022-11-14T03:14:36;5.60;99.90
13896;DHT22;7018;50.838;4.226;2022-11-14T03:17:04;5.60;99.90
13896;DHT22;7018;50.838;4.226;2022-11-14T03:19:31;5.50;99.90
13896;DHT22;7018;50.838;4.226;2022-11-14T03:21:58;5.50;99.90
13896;DHT22;7018;50.838;4.226;2022-11-14T03:24:25;5.50;99.90
13896;DHT22;7018;50.838;4.226;2022-11-14T03:26:52;5.40;99.90
13896;DHT22;7018;50.838;4.226;2022-11-14T03:29:19;5.30;99.90
13896;DHT22;7018;50.838;4.226;2022-11-14T03:31:46;5.30;99.90
13896;DHT22;7018;50.838;4.226;2022-11-14T03:34:13;5.30;99.90
13896;DHT22;7018;50.838;4.226;2022-11-14T03:36:40;5.30;99.90
13896;DHT22;7018;50.838;4.226;2022-11-14T03:39:07;5.30;99.90
13896;DHT22;7018;50.838;4.226;2022-11-14T03:41:34;5.40;99.90
13896;DHT22;7018;50.838;4.226;2022-11-14T03:44:01;5.40;99.90
13896;DHT22;7018;50.838;4.226;2022-11-14T03:46:28;5.40;99.90
13896;DHT22;7018;50.838;4.226;2022-11-14T03:48:56;5.40;99.90
13896;DHT22;7018;50.838;4.226;2022-11-14T03:51:23;5.30;99.90
13896;DHT22;7018;50.838;4.226;2022-11-14T03:53:50;5.20;99.90
13896;DHT22;7018;50.838;4.226;2022-11-14T03:56:17;5.10;99.90
13896;DHT22;7018;50.838;4.226;2022-11-14T03:58:44;5.00;99.90
13896;DHT22;7018;50.838;4.226;2022-11-14T04:01:11;5.00;99.90
13896;DHT22;7018;50.838;4.226;2022-11-14T04:03:38;4.90;99.90
13896;DHT22;7018;50.838;4.226;2022-11-14T04:06:05;4.70;99.90
13896;DHT22;7018;50.838;4.226;2022-11-14T04:08:32;4.80;99.90
13896;DHT22;7018;50.838;4.226;2022-11-14T04:10:59;4.90;99.90
13896;DHT22;7018;50.838;4.226;2022-11-14T04:13:26;4.80;99.90
13896;DHT22;7018;50.838;4.226;2022-11-14T04:15:54;4.80;99.90
13896;DHT22;7018;50.838;4.226;2022-11-14T04:18:22;4.80;99.90
13896;DHT22;7018;50.838;4.226;2022-11-14T04:20:50;4.80;99.90
13896;DHT22;7018;50.838;4.226;2022-11-14T04:23:18;4.70;99.90
13896;DHT22;7018;50.838;4.226;2022-11-14T04:25:45;4.60;99.90
13896;DHT22;7018;50.838;4.226;2022-11-14T04:28:13;4.50;99.90
13896;DHT22;7018;50.838;4.226;2022-11-14T04:30:40;4.50;99.90
13896;DHT22;7018;50.838;4.226;2022-11-14T04:33:07;4.50;99.90
13896;DHT22;7018;50.838;4.226;2022-11-14T04:35:34;4.50;99.90
13896;DHT22;7018;50.838;4.226;2022-11-14T04:38:01;4.40;99.90
13896;DHT22;7018;50.838;4.226;2022-11-14T04:40:29;4.40;99.90
13896;DHT22;7018;50.838;4.226;2022-11-14T04:42:56;4.40;99.90
13896;DHT22;7018;50.838;4.226;2022-11-14T04:45:23;4.40;99.90
13896;DHT22;7018;50.838;4.226;2022-11-14T04:47:50;4.30;99.90
13896;DHT22;7018;50.838;4.226;2022-11-14T04:50:17;4.30;99.90
13896;DHT22;7018;50.838;4.226;2022-11-14T04:52:44;4.30;99.90
13896;DHT22;7018;50.838;4.226;2022-11-14T04:55:11;4.30;99.90
13896;DHT22;7018;50.838;4.226;2022-11-14T04:57:38;4.30;99.90
13896;DHT22;7018;50.838;4.226;2022-11-14T05:00:06;4.30;99.90
13896;DHT22;7018;50.838;4.226;2022-11-14T05:02:36;4.20;99.90
13896;DHT22;7018;50.838;4.226;2022-11-14T05:05:03;4.40;99.90
13896;DHT22;7018;50.838;4.226;2022-11-14T05:07:30;4.40;99.90
13896;DHT22;7018;50.838;4.226;2022-11-14T05:09:57;4.40;99.90
13896;DHT22;7018;50.838;4.226;2022-11-14T05:12:24;4.40;99.90
13896;DHT22;7018;50.838;4.226;2022-11-14T05:14:51;4.50;99.90
13896;DHT22;7018;50.838;4.226;2022-11-14T05:17:18;4.50;99.90
13896;DHT22;7018;50.838;4.226;2022-11-14T05:19:45;4.50;99.90
13896;DHT22;7018;50.838;4.226;2022-11-14T05:22:12;4.50;99.90
13896;DHT22;7018;50.838;4.226;2022-11-14T05:24:39;4.50;99.90
13896;DHT22;7018;50.838;4.226;2022-11-14T05:27:06;4.60;99.90
13896;DHT22;7018;50.838;4.226;2022-11-14T05:29:34;4.60;99.90
13896;DHT22;7018;50.838;4.226;2022-11-14T05:32:01;4.50;99.90
13896;DHT22;7018;50.838;4.226;2022-11-14T05:34:28;4.60;99.90
13896;DHT22;7018;50.838;4.226;2022-11-14T05:36:55;4.60;99.90
13896;DHT22;7018;50.838;4.226;2022-11-14T05:39:23;4.60;99.90
13896;DHT22;7018;50.838;4.226;2022-11-14T05:41:50;4.60;99.90
13896;DHT22;7018;50.838;4.226;2022-11-14T05:44:17;4.70;99.90
13896;DHT22;7018;50.838;4.226;2022-11-14T05:46:44;4.60;99.90
13896;DHT22;7018;50.838;4.226;2022-11-14T05:49:11;4.70;99.90
13896;DHT22;7018;50.838;4.226;2022-11-14T05:51:39;4.60;99.90
13896;DHT22;7018;50.838;4.226;2022-11-14T05:54:07;4.60;99.90
13896;DHT22;7018;50.838;4.226;2022-11-14T05:56:34;4.60;99.90
13896;DHT22;7018;50.838;4.226;2022-11-14T05:59:01;4.50;99.90
13896;DHT22;7018;50.838;4.226;2022-11-14T06:01:28;4.40;99.90
13896;DHT22;7018;50.838;4.226;2022-11-14T06:03:55;4.40;99.90
13896;DHT22;7018;50.838;4.226;2022-11-14T06:06:23;4.40;99.90
13896;DHT22;7018;50.838;4.226;2022-11-14T06:08:51;4.30;99.90
13896;DHT22;7018;50.838;4.226;2022-11-14T06:11:19;4.20;99.90
13896;DHT22;7018;50.838;4.226;2022-11-14T06:13:47;4.10;99.90
13896;DHT22;7018;50.838;4.226;2022-11-14T06:16:18;4.00;99.90
13896;DHT22;7018;50.838;4.226;2022-11-14T06:18:46;3.90;99.90
13896;DHT22;7018;50.838;4.226;2022-11-14T06:21:18;4.00;99.90
13896;DHT22;7018;50.838;4.226;2022-11-14T06:23:47;4.00;99.90
13896;DHT22;7018;50.838;4.226;2022-11-14T06:26:27;4.00;99.90
13896;DHT22;7018;50.838;4.226;2022-11-14T06:29:00;4.00;99.90
13896;DHT22;7018;50.838;4.226;2022-11-14T06:31:27;4.00;99.90
13896;DHT22;7018;50.838;4.226;2022-11-14T06:33:54;4.00;99.90
13896;DHT22;7018;50.838;4.226;2022-11-14T06:36:23;3.90;99.90
13896;DHT22;7018;50.838;4.226;2022-11-14T06:38:50;3.80;99.90
13896;DHT22;7018;50.838;4.226;2022-11-14T06:41:19;3.90;99.90
13896;DHT22;7018;50.838;4.226;2022-11-14T06:43:48;3.90;99.90
13896;DHT22;7018;50.838;4.226;2022-11-14T06:46:18;4.00;99.90
13896;DHT22;7018;50.838;4.226;2022-11-14T06:48:46;4.00;99.90
13896;DHT22;7018;50.838;4.226;2022-11-14T06:51:15;4.00;99.90
13896;DHT22;7018;50.838;4.226;2022-11-14T06:53:43;4.00;99.90
13896;DHT22;7018;50.838;4.226;2022-11-14T06:56:12;4.00;99.90
13896;DHT22;7018;50.838;4.226;2022-11-14T06:58:42;3.90;99.90
13896;DHT22;7018;50.838;4.226;2022-11-14T07:01:12;4.00;99.90
13896;DHT22;7018;50.838;4.226;2022-11-14T07:03:43;4.10;99.90
13896;DHT22;7018;50.838;4.226;2022-11-14T07:06:15;4.00;99.90
13896;DHT22;7018;50.838;4.226;2022-11-14T07:12:12;4.20;99.90
13896;DHT22;7018;50.838;4.226;2022-11-14T07:14:39;4.20;99.90
13896;DHT22;7018;50.838;4.226;2022-11-14T07:32:13;4.40;99.90
13896;DHT22;7018;50.838;4.226;2022-11-14T07:45:43;4.10;99.90
13896;DHT22;7018;50.838;4.226;2022-11-14T08:00:17;4.30;99.90
13896;DHT22;7018;50.838;4.226;2022-11-14T08:02:45;4.20;99.90
13896;DHT22;7018;50.838;4.226;2022-11-14T08:08:53;4.30;99.90
13896;DHT22;7018;50.838;4.226;2022-11-14T08:19:11;4.40;99.90
13896;DHT22;7018;50.838;4.226;2022-11-14T08:28:23;4.70;99.90
13896;DHT22;7018;50.838;4.226;2022-11-14T08:30:50;4.90;99.90
13896;DHT22;7018;50.838;4.226;2022-11-14T08:33:38;4.90;99.90
13896;DHT22;7018;50.838;4.226;2022-11-14T08:36:06;4.90;99.90
13896;DHT22;7018;50.838;4.226;2022-11-14T08:38:33;5.10;99.90
13896;DHT22;7018;50.838;4.226;2022-11-14T09:45:17;6.40;99.90
13896;DHT22;7018;50.838;4.226;2022-11-14T09:51:31;6.50;99.90
13896;DHT22;7018;50.838;4.226;2022-11-14T09:54:16;6.70;99.90
13896;DHT22;7018;50.838;4.226;2022-11-14T09:56:45;6.80;99.90
13896;DHT22;7018;50.838;4.226;2022-11-14T09:59:12;6.90;99.90
13896;DHT22;7018;50.838;4.226;2022-11-14T10:07:30;7.00;99.90
13896;DHT22;7018;50.838;4.226;2022-11-14T10:12:55;7.20;99.90
13896;DHT22;7018;50.838;4.226;2022-11-14T10:20:50;7.40;99.90
13896;DHT22;7018;50.838;4.226;2022-11-14T10:26:29;7.40;99.90
13896;DHT22;7018;50.838;4.226;2022-11-14T10:29:30;7.50;99.90
13896;DHT22;7018;50.838;4.226;2022-11-14T10:37:36;7.30;99.90
13896;DHT22;7018;50.838;4.226;2022-11-14T10:40:22;7.00;99.90
13896;DHT22;7018;50.838;4.226;2022-11-14T10:42:56;6.90;99.90
13896;DHT22;7018;50.838;4.226;2022-11-14T10:45:35;6.60;99.90
13896;DHT22;7018;50.838;4.226;2022-11-14T10:48:15;6.50;99.90
13896;DHT22;7018;50.838;4.226;2022-11-14T10:50:59;6.40;99.90
13896;DHT22;7018;50.838;4.226;2022-11-14T10:53:51;6.60;99.90
13896;DHT22;7018;50.838;4.226;2022-11-14T10:56:20;6.50;99.90
13896;DHT22;7018;50.838;4.226;2022-11-14T10:58:48;6.30;99.90
13896;DHT22;7018;50.838;4.226;2022-11-14T11:01:40;6.30;99.90
13896;DHT22;7018;50.838;4.226;2022-11-14T11:04:13;6.20;99.90
13896;DHT22;7018;50.838;4.226;2022-11-14T11:06:40;5.60;99.90
13896;DHT22;7018;50.838;4.226;2022-11-14T11:12:00;6.20;99.90
13896;DHT22;7018;50.838;4.226;2022-11-14T11:14:28;6.40;99.90
13896;DHT22;7018;50.838;4.226;2022-11-14T11:17:28;6.50;99.90
13896;DHT22;7018;50.838;4.226;2022-11-14T11:23:01;6.60;99.90
13896;DHT22;7018;50.838;4.226;2022-11-14T11:25:31;6.70;99.90
13896;DHT22;7018;50.838;4.226;2022-11-14T11:30:38;6.90;99.90
13896;DHT22;7018;50.838;4.226;2022-11-14T11:35:50;6.20;99.90
13896;DHT22;7018;50.838;4.226;2022-11-14T11:38:20;6.80;99.90
13896;DHT22;7018;50.838;4.226;2022-11-14T11:40:50;6.80;99.90
13896;DHT22;7018;50.838;4.226;2022-11-14T11:43:41;6.70;99.90
13896;DHT22;7018;50.838;4.226;2022-11-14T11:46:24;6.70;99.90
13896;DHT22;7018;50.838;4.226;2022-11-14T11:48:59;6.10;99.90
13896;DHT22;7018;50.838;4.226;2022-11-14T11:51:28;6.50;99.90
13896;DHT22;7018;50.838;4.226;2022-11-14T11:54:01;6.50;99.90
13896;DHT22;7018;50.838;4.226;2022-11-14T11:56:31;6.60;99.90
13896;DHT22;7018;50.838;4.226;2022-11-14T12:01:39;6.70;99.90
13896;DHT22;7018;50.838;4.226;2022-11-14T12:04:08;6.80;99.90
13896;DHT22;7018;50.838;4.226;2022-11-14T12:09:37;6.90;99.90
13896;DHT22;7018;50.838;4.226;2022-11-14T12:12:58;6.80;99.90
13896;DHT22;7018;50.838;4.226;2022-11-14T12:27:14;7.20;99.90
13896;DHT22;7018;50.838;4.226;2022-11-14T12:30:10;7.30;99.90
13896;DHT22;7018;50.838;4.226;2022-11-14T12:33:03;7.40;99.90
13896;DHT22;7018;50.838;4.226;2022-11-14T12:35:35;7.30;99.90
13896;DHT22;7018;50.838;4.226;2022-11-14T12:38:13;7.00;99.90
13896;DHT22;7018;50.838;4.226;2022-11-14T12:40:52;7.00;99.90
13896;DHT22;7018;50.838;4.226;2022-11-14T12:43:35;6.90;99.90
13896;DHT22;7018;50.838;4.226;2022-11-14T12:46:07;6.80;99.90
13896;DHT22;7018;50.838;4.226;2022-11-14T12:48:41;7.00;99.90
13896;DHT22;7018;50.838;4.226;2022-11-14T12:53:55;7.20;99.90
13896;DHT22;7018;50.838;4.226;2022-11-14T13:10:40;7.00;99.90
13896;DHT22;7018;50.838;4.226;2022-11-14T13:13:09;7.00;99.90
13896;DHT22;7018;50.838;4.226;2022-11-14T13:27:32;6.60;99.90
13896;DHT22;7018;50.838;4.226;2022-11-14T13:30:18;6.70;99.90
13896;DHT22;7018;50.838;4.226;2022-11-14T13:40:49;7.00;99.90
13896;DHT22;7018;50.838;4.226;2022-11-14T13:46:18;6.80;99.90
13896;DHT22;7018;50.838;4.226;2022-11-14T13:51:36;6.80;99.90
13896;DHT22;7018;50.838;4.226;2022-11-14T13:54:15;6.80;99.90
13896;DHT22;7018;50.838;4.226;2022-11-14T14:02:37;6.70;99.90
13896;DHT22;7018;50.838;4.226;2022-11-14T14:05:20;6.80;99.90
13896;DHT22;7018;50.838;4.226;2022-11-14T14:13:40;6.70;99.90
13896;DHT22;7018;50.838;4.226;2022-11-14T14:16:39;6.90;99.90
13896;DHT22;7018;50.838;4.226;2022-11-14T14:22:07;6.80;99.90
13896;DHT22;7018;50.838;4.226;2022-11-14T14:24:52;6.80;99.90
13896;DHT22;7018;50.838;4.226;2022-11-14T14:27:34;6.80;99.90
13896;DHT22;7018;50.838;4.226;2022-11-14T14:32:37;6.90;99.90
13896;DHT22;7018;50.838;4.226;2022-11-14T14:35:24;6.90;99.90
13896;DHT22;7018;50.838;4.226;2022-11-14T14:37:54;6.90;99.90
13896;DHT22;7018;50.838;4.226;2022-11-14T14:40:27;6.80;99.90
13896;DHT22;7018;50.838;4.226;2022-11-14T14:42:54;6.90;99.90
13896;DHT22;7018;50.838;4.226;2022-11-14T14:45:26;6.80;99.90
13896;DHT22;7018;50.838;4.226;2022-11-14T14:48:14;7.00;99.90
13896;DHT22;7018;50.838;4.226;2022-11-14T14:50:47;7.00;99.90
13896;DHT22;7018;50.838;4.226;2022-11-14T14:53:23;7.00;99.90
13896;DHT22;7018;50.838;4.226;2022-11-14T14:55:57;7.10;99.90
13896;DHT22;7018;50.838;4.226;2022-11-14T14:58:26;7.00;99.90
13896;DHT22;7018;50.838;4.226;2022-11-14T15:04:00;7.10;99.90
13896;DHT22;7018;50.838;4.226;2022-11-14T15:06:35;7.10;99.90
13896;DHT22;7018;50.838;4.226;2022-11-14T15:09:26;7.00;99.90
13896;DHT22;7018;50.838;4.226;2022-11-14T15:11:55;7.00;99.90
13896;DHT22;7018;50.838;4.226;2022-11-14T15:14:34;7.00;99.90
13896;DHT22;7018;50.838;4.226;2022-11-14T15:17:05;7.00;99.90
13896;DHT22;7018;50.838;4.226;2022-11-14T15:19:44;7.20;99.90
13896;DHT22;7018;50.838;4.226;2022-11-14T15:24:41;7.30;99.90
13896;DHT22;7018;50.838;4.226;2022-11-14T15:27:16;7.20;99.90
13896;DHT22;7018;50.838;4.226;2022-11-14T15:29:51;7.30;99.90
13896;DHT22;7018;50.838;4.226;2022-11-14T15:32:20;7.40;99.90
13896;DHT22;7018;50.838;4.226;2022-11-14T15:40:41;7.40;99.90
13896;DHT22;7018;50.838;4.226;2022-11-14T15:44:00;7.10;99.90
13896;DHT22;7018;50.838;4.226;2022-11-14T15:49:06;7.20;99.90
13896;DHT22;7018;50.838;4.226;2022-11-14T15:51:52;7.20;99.90
13896;DHT22;7018;50.838;4.226;2022-11-14T15:57:01;7.30;99.90
13896;DHT22;7018;50.838;4.226;2022-11-14T15:59:32;7.30;99.90
13896;DHT22;7018;50.838;4.226;2022-11-14T16:02:11;7.30;99.90
13896;DHT22;7018;50.838;4.226;2022-11-14T16:04:40;7.30;99.90
13896;DHT22;7018;50.838;4.226;2022-11-14T16:07:12;7.20;99.90
13896;DHT22;7018;50.838;4.226;2022-11-14T16:09:39;7.20;99.90
13896;DHT22;7018;50.838;4.226;2022-11-14T16:12:07;7.30;99.90
13896;DHT22;7018;50.838;4.226;2022-11-14T16:14:34;7.20;99.90
13896;DHT22;7018;50.838;4.226;2022-11-14T16:17:01;7.20;99.90
13896;DHT22;7018;50.838;4.226;2022-11-14T16:19:28;7.20;99.90
13896;DHT22;7018;50.838;4.226;2022-11-14T16:22:01;6.50;99.90
13896;DHT22;7018;50.838;4.226;2022-11-14T16:24:29;7.20;99.90
13896;DHT22;7018;50.838;4.226;2022-11-14T16:26:59;7.20;99.90
13896;DHT22;7018;50.838;4.226;2022-11-14T16:29:26;7.20;99.90
13896;DHT22;7018;50.838;4.226;2022-11-14T16:31:53;6.70;99.90
13896;DHT22;7018;50.838;4.226;2022-11-14T16:34:24;7.20;99.90
13896;DHT22;7018;50.838;4.226;2022-11-14T16:36:59;7.20;99.90
13896;DHT22;7018;50.838;4.226;2022-11-14T16:39:27;7.20;99.90
13896;DHT22;7018;50.838;4.226;2022-11-14T16:42:01;7.20;99.90
13896;DHT22;7018;50.838;4.226;2022-11-14T16:44:29;7.10;99.90
13896;DHT22;7018;50.838;4.226;2022-11-14T16:46:57;7.10;99.90
13896;DHT22;7018;50.838;4.226;2022-11-14T16:49:24;7.10;99.90
13896;DHT22;7018;50.838;4.226;2022-11-14T16:51:51;7.20;99.90
13896;DHT22;7018;50.838;4.226;2022-11-14T16:54:19;7.30;99.90
13896;DHT22;7018;50.838;4.226;2022-11-14T16:56:46;7.10;99.90
13896;DHT22;7018;50.838;4.226;2022-11-14T16:59:13;7.10;99.90
13896;DHT22;7018;50.838;4.226;2022-11-14T17:01:41;7.20;99.90
13896;DHT22;7018;50.838;4.226;2022-11-14T17:04:08;7.20;99.90
13896;DHT22;7018;50.838;4.226;2022-11-14T17:06:35;7.20;99.90
13896;DHT22;7018;50.838;4.226;2022-11-14T17:09:02;7.20;99.90
13896;DHT22;7018;50.838;4.226;2022-11-14T17:11:29;7.20;99.90
13896;DHT22;7018;50.838;4.226;2022-11-14T17:13:56;7.20;99.90
13896;DHT22;7018;50.838;4.226;2022-11-14T17:16:24;7.10;99.90
13896;DHT22;7018;50.838;4.226;2022-11-14T17:18:52;7.10;99.90
13896;DHT22;7018;50.838;4.226;2022-11-14T17:21:20;7.20;99.90
13896;DHT22;7018;50.838;4.226;2022-11-14T17:23:55;7.20;99.90
13896;DHT22;7018;50.838;4.226;2022-11-14T17:26:22;7.20;99.90
13896;DHT22;7018;50.838;4.226;2022-11-14T17:28:50;7.30;99.90
13896;DHT22;7018;50.838;4.226;2022-11-14T17:31:17;7.20;99.90
13896;DHT22;7018;50.838;4.226;2022-11-14T17:33:53;7.30;99.90
13896;DHT22;7018;50.838;4.226;2022-11-14T17:36:21;7.30;99.90
13896;DHT22;7018;50.838;4.226;2022-11-14T17:38:49;7.30;99.90
13896;DHT22;7018;50.838;4.226;2022-11-14T17:41:16;7.30;99.90
13896;DHT22;7018;50.838;4.226;2022-11-14T17:43:43;7.30;99.90
13896;DHT22;7018;50.838;4.226;2022-11-14T17:46:11;7.40;99.90
13896;DHT22;7018;50.838;4.226;2022-11-14T17:48:42;7.40;99.90
13896;DHT22;7018;50.838;4.226;2022-11-14T17:51:11;7.40;99.90
13896;DHT22;7018;50.838;4.226;2022-11-14T17:53:39;7.40;99.90
13896;DHT22;7018;50.838;4.226;2022-11-14T17:56:12;7.40;99.90
13896;DHT22;7018;50.838;4.226;2022-11-14T17:58:40;7.30;99.90
13896;DHT22;7018;50.838;4.226;2022-11-14T18:01:15;7.30;99.90
13896;DHT22;7018;50.838;4.226;2022-11-14T18:03:42;7.40;99.90
13896;DHT22;7018;50.838;4.226;2022-11-14T18:06:12;7.40;99.90
13896;DHT22;7018;50.838;4.226;2022-11-14T18:08:40;7.40;99.90
13896;DHT22;7018;50.838;4.226;2022-11-14T18:11:09;7.40;99.90
13896;DHT22;7018;50.838;4.226;2022-11-14T18:13:38;7.30;99.90
13896;DHT22;7018;50.838;4.226;2022-11-14T18:16:08;7.40;99.90
13896;DHT22;7018;50.838;4.226;2022-11-14T18:18:36;7.40;99.90
13896;DHT22;7018;50.838;4.226;2022-11-14T18:21:11;7.70;99.90
13896;DHT22;7018;50.838;4.226;2022-11-14T18:23:39;7.50;99.90
13896;DHT22;7018;50.838;4.226;2022-11-14T18:26:14;7.50;99.90
13896;DHT22;7018;50.838;4.226;2022-11-14T18:28:42;7.50;99.90
13896;DHT22;7018;50.838;4.226;2022-11-14T18:31:10;7.10;99.90
13896;DHT22;7018;50.838;4.226;2022-11-14T18:33:38;7.50;99.90
13896;DHT22;7018;50.838;4.226;2022-11-14T18:36:11;7.50;99.90
13896;DHT22;7018;50.838;4.226;2022-11-14T18:38:39;7.60;99.90
13896;DHT22;7018;50.838;4.226;2022-11-14T18:41:08;6.60;99.90
13896;DHT22;7018;50.838;4.226;2022-11-14T18:43:35;7.60;99.90
13896;DHT22;7018;50.838;4.226;2022-11-14T18:46:07;8.20;99.90
13896;DHT22;7018;50.838;4.226;2022-11-14T18:48:35;7.70;99.90
13896;DHT22;7018;50.838;4.226;2022-11-14T18:51:04;7.80;99.90
13896;DHT22;7018;50.838;4.226;2022-11-14T18:53:33;7.70;99.90
13896;DHT22;7018;50.838;4.226;2022-11-14T18:56:09;7.70;99.90
13896;DHT22;7018;50.838;4.226;2022-11-14T18:58:36;7.80;99.90
13896;DHT22;7018;50.838;4.226;2022-11-14T23:51:06;11.30;99.90
13896;DHT22;7018;50.838;4.226;2022-11-14T23:53:33;11.30;99.90
13896;DHT22;7018;50.838;4.226;2022-11-14T23:56:01;11.30;99.90
13896;DHT22;7018;50.838;4.226;2022-11-14T23:58:29;11.30;99.90
